sensor_id;sensor_type;location;lat;lon;timestamp;P1;durP1;ratioP1;P2;durP2;ratioP2
74375;SDS011;62812;55.188;61.302;2023-04-15T00:00:55;10.65;;;2.08;;
74375;SDS011;62812;55.188;61.302;2023-04-15T00:03:22;12.32;;;2.97;;
74375;SDS011;62812;55.188;61.302;2023-04-15T00:05:51;4.05;;;1.65;;
74375;SDS011;62812;55.188;61.302;2023-04-15T00:08:17;9.95;;;2.90;;
74375;SDS011;62812;55.188;61.302;2023-04-15T00:10:45;11.57;;;2.95;;
74375;SDS011;62812;55.188;61.302;2023-04-15T00:13:12;9.75;;;2.63;;
74375;SDS011;62812;55.188;61.302;2023-04-15T00:15:41;12.80;;;3.40;;
74375;SDS011;62812;55.188;61.302;2023-04-15T00:18:08;11.35;;;2.92;;
74375;SDS011;62812;55.188;61.302;2023-04-15T00:20:35;10.98;;;3.20;;
74375;SDS011;62812;55.188;61.302;2023-04-15T00:23:05;8.63;;;2.50;;
74375;SDS011;62812;55.188;61.302;2023-04-15T00:25:32;8.25;;;1.98;;
74375;SDS011;62812;55.188;61.302;2023-04-15T00:28:00;8.18;;;3.35;;
74375;SDS011;62812;55.188;61.302;2023-04-15T00:30:28;9.25;;;2.95;;
74375;SDS011;62812;55.188;61.302;2023-04-15T00:32:55;11.43;;;2.85;;
74375;SDS011;62812;55.188;61.302;2023-04-15T00:35:22;12.23;;;3.50;;
74375;SDS011;62812;55.188;61.302;2023-04-15T00:37:49;7.78;;;1.75;;
74375;SDS011;62812;55.188;61.302;2023-04-15T00:40:18;15.35;;;3.92;;
74375;SDS011;62812;55.188;61.302;2023-04-15T00:42:46;9.50;;;3.22;;
74375;SDS011;62812;55.188;61.302;2023-04-15T00:45:13;9.50;;;2.45;;
74375;SDS011;62812;55.188;61.302;2023-04-15T00:47:41;13.50;;;3.85;;
74375;SDS011;62812;55.188;61.302;2023-04-15T00:50:08;7.10;;;2.90;;
74375;SDS011;62812;55.188;61.302;2023-04-15T00:52:37;12.23;;;3.92;;
74375;SDS011;62812;55.188;61.302;2023-04-15T00:55:05;15.88;;;4.10;;
74375;SDS011;62812;55.188;61.302;2023-04-15T01:00:32;3.20;;;1.17;;
74375;SDS011;62812;55.188;61.302;2023-04-15T01:02:59;15.48;;;4.32;;
74375;SDS011;62812;55.188;61.302;2023-04-15T01:05:27;12.27;;;3.42;;
74375;SDS011;62812;55.188;61.302;2023-04-15T01:07:55;10.73;;;3.47;;
74375;SDS011;62812;55.188;61.302;2023-04-15T01:10:23;10.65;;;2.28;;
74375;SDS011;62812;55.188;61.302;2023-04-15T01:12:50;10.35;;;2.70;;
74375;SDS011;62812;55.188;61.302;2023-04-15T01:15:17;11.15;;;2.60;;
74375;SDS011;62812;55.188;61.302;2023-04-15T01:17:47;5.67;;;1.70;;
74375;SDS011;62812;55.188;61.302;2023-04-15T01:23:16;7.80;;;2.40;;
74375;SDS011;62812;55.188;61.302;2023-04-15T01:28:44;3.15;;;1.10;;
74375;SDS011;62812;55.188;61.302;2023-04-15T01:37:44;13.27;;;2.80;;
74375;SDS011;62812;55.188;61.302;2023-04-15T01:56:16;9.15;;;2.90;;
74375;SDS011;62812;55.188;61.302;2023-04-15T01:58:45;8.95;;;2.60;;
74375;SDS011;62812;55.188;61.302;2023-04-15T02:04:36;10.15;;;3.00;;
74375;SDS011;62812;55.188;61.302;2023-04-15T02:07:06;8.45;;;2.83;;
74375;SDS011;62812;55.188;61.302;2023-04-15T02:09:34;12.93;;;4.47;;
74375;SDS011;62812;55.188;61.302;2023-04-15T02:12:03;14.13;;;4.18;;
74375;SDS011;62812;55.188;61.302;2023-04-15T02:14:38;15.25;;;4.05;;
74375;SDS011;62812;55.188;61.302;2023-04-15T02:17:27;12.40;;;3.55;;
74375;SDS011;62812;55.188;61.302;2023-04-15T02:23:21;7.60;;;2.22;;
74375;SDS011;62812;55.188;61.302;2023-04-15T02:25:49;16.17;;;3.67;;
74375;SDS011;62812;55.188;61.302;2023-04-15T02:28:18;10.10;;;3.40;;
74375;SDS011;62812;55.188;61.302;2023-04-15T02:30:49;12.15;;;3.05;;
74375;SDS011;62812;55.188;61.302;2023-04-15T02:33:19;9.50;;;2.50;;
74375;SDS011;62812;55.188;61.302;2023-04-15T02:35:48;14.02;;;2.83;;
74375;SDS011;62812;55.188;61.302;2023-04-15T02:38:16;10.68;;;3.33;;
74375;SDS011;62812;55.188;61.302;2023-04-15T02:40:45;12.73;;;3.35;;
74375;SDS011;62812;55.188;61.302;2023-04-15T02:43:16;10.95;;;3.28;;
74375;SDS011;62812;55.188;61.302;2023-04-15T02:45:46;10.80;;;3.20;;
74375;SDS011;62812;55.188;61.302;2023-04-15T02:48:34;13.15;;;3.78;;
74375;SDS011;62812;55.188;61.302;2023-04-15T02:51:11;17.88;;;3.83;;
74375;SDS011;62812;55.188;61.302;2023-04-15T02:54:01;12.75;;;2.92;;
74375;SDS011;62812;55.188;61.302;2023-04-15T02:56:30;12.32;;;2.90;;
74375;SDS011;62812;55.188;61.302;2023-04-15T02:59:01;13.85;;;2.90;;
74375;SDS011;62812;55.188;61.302;2023-04-15T03:01:30;12.88;;;2.90;;
74375;SDS011;62812;55.188;61.302;2023-04-15T03:04:22;13.85;;;3.42;;
74375;SDS011;62812;55.188;61.302;2023-04-15T03:07:43;11.93;;;3.30;;
74375;SDS011;62812;55.188;61.302;2023-04-15T03:10:39;9.63;;;2.80;;
74375;SDS011;62812;55.188;61.302;2023-04-15T03:13:22;10.55;;;2.13;;
74375;SDS011;62812;55.188;61.302;2023-04-15T03:16:00;13.63;;;2.92;;
74375;SDS011;62812;55.188;61.302;2023-04-15T03:18:29;14.20;;;2.60;;
74375;SDS011;62812;55.188;61.302;2023-04-15T03:20:57;10.30;;;2.03;;
74375;SDS011;62812;55.188;61.302;2023-04-15T03:23:26;12.88;;;3.20;;
74375;SDS011;62812;55.188;61.302;2023-04-15T03:26:00;9.70;;;2.60;;
74375;SDS011;62812;55.188;61.302;2023-04-15T03:38:25;12.00;;;2.70;;
74375;SDS011;62812;55.188;61.302;2023-04-15T03:40:56;14.40;;;2.67;;
74375;SDS011;62812;55.188;61.302;2023-04-15T03:43:25;18.25;;;2.70;;
74375;SDS011;62812;55.188;61.302;2023-04-15T03:45:54;9.38;;;1.75;;
74375;SDS011;62812;55.188;61.302;2023-04-15T03:48:27;15.02;;;2.15;;
74375;SDS011;62812;55.188;61.302;2023-04-15T03:54:06;8.82;;;1.98;;
74375;SDS011;62812;55.188;61.302;2023-04-15T03:56:47;15.00;;;2.28;;
74375;SDS011;62812;55.188;61.302;2023-04-15T03:59:18;9.27;;;2.00;;
74375;SDS011;62812;55.188;61.302;2023-04-15T04:01:51;10.00;;;2.00;;
74375;SDS011;62812;55.188;61.302;2023-04-15T04:04:48;8.75;;;2.08;;
74375;SDS011;62812;55.188;61.302;2023-04-15T04:07:25;10.77;;;2.72;;
74375;SDS011;62812;55.188;61.302;2023-04-15T04:10:00;9.32;;;2.22;;
74375;SDS011;62812;55.188;61.302;2023-04-15T04:12:35;14.77;;;2.80;;
74375;SDS011;62812;55.188;61.302;2023-04-15T04:15:06;11.05;;;3.08;;
74375;SDS011;62812;55.188;61.302;2023-04-15T04:20:38;9.05;;;2.45;;
74375;SDS011;62812;55.188;61.302;2023-04-15T04:23:13;6.57;;;1.95;;
74375;SDS011;62812;55.188;61.302;2023-04-15T04:25:49;10.85;;;2.40;;
74375;SDS011;62812;55.188;61.302;2023-04-15T04:28:21;6.85;;;2.03;;
74375;SDS011;62812;55.188;61.302;2023-04-15T04:30:51;7.82;;;2.47;;
74375;SDS011;62812;55.188;61.302;2023-04-15T04:33:20;8.00;;;2.53;;
74375;SDS011;62812;55.188;61.302;2023-04-15T04:35:49;13.68;;;2.60;;
74375;SDS011;62812;55.188;61.302;2023-04-15T04:40:48;11.35;;;2.83;;
74375;SDS011;62812;55.188;61.302;2023-04-15T04:43:18;9.75;;;3.15;;
74375;SDS011;62812;55.188;61.302;2023-04-15T04:45:52;14.63;;;2.55;;
74375;SDS011;62812;55.188;61.302;2023-04-15T04:48:25;9.02;;;2.53;;
74375;SDS011;62812;55.188;61.302;2023-04-15T04:50:53;6.38;;;1.50;;
74375;SDS011;62812;55.188;61.302;2023-04-15T04:53:24;13.48;;;2.72;;
74375;SDS011;62812;55.188;61.302;2023-04-15T04:55:54;12.35;;;1.83;;
74375;SDS011;62812;55.188;61.302;2023-04-15T04:58:26;9.02;;;1.90;;
74375;SDS011;62812;55.188;61.302;2023-04-15T05:01:05;9.98;;;2.05;;
74375;SDS011;62812;55.188;61.302;2023-04-15T05:03:37;9.88;;;3.25;;
74375;SDS011;62812;55.188;61.302;2023-04-15T05:06:07;10.15;;;2.50;;
74375;SDS011;62812;55.188;61.302;2023-04-15T05:08:40;9.63;;;2.00;;
74375;SDS011;62812;55.188;61.302;2023-04-15T05:11:10;7.65;;;2.20;;
74375;SDS011;62812;55.188;61.302;2023-04-15T05:13:38;7.05;;;1.70;;
74375;SDS011;62812;55.188;61.302;2023-04-15T05:16:10;6.45;;;1.90;;
74375;SDS011;62812;55.188;61.302;2023-04-15T05:18:41;7.18;;;1.95;;
74375;SDS011;62812;55.188;61.302;2023-04-15T05:21:09;5.90;;;1.63;;
74375;SDS011;62812;55.188;61.302;2023-04-15T05:23:51;10.45;;;1.80;;
74375;SDS011;62812;55.188;61.302;2023-04-15T05:29:23;5.78;;;1.48;;
74375;SDS011;62812;55.188;61.302;2023-04-15T05:31:54;10.80;;;1.67;;
74375;SDS011;62812;55.188;61.302;2023-04-15T05:38:03;4.57;;;1.30;;
74375;SDS011;62812;55.188;61.302;2023-04-15T05:43:53;5.72;;;2.13;;
74375;SDS011;62812;55.188;61.302;2023-04-15T05:46:48;11.52;;;2.45;;
74375;SDS011;62812;55.188;61.302;2023-04-15T05:49:23;6.88;;;2.40;;
74375;SDS011;62812;55.188;61.302;2023-04-15T05:51:55;5.60;;;2.10;;
74375;SDS011;62812;55.188;61.302;2023-04-15T05:54:33;7.35;;;2.47;;
74375;SDS011;62812;55.188;61.302;2023-04-15T05:57:17;10.52;;;3.05;;
74375;SDS011;62812;55.188;61.302;2023-04-15T06:07:58;4.15;;;1.50;;
74375;SDS011;62812;55.188;61.302;2023-04-15T06:10:26;19.42;;;1.63;;
74375;SDS011;62812;55.188;61.302;2023-04-15T06:12:59;3.83;;;1.20;;
74375;SDS011;62812;55.188;61.302;2023-04-15T06:15:34;5.63;;;1.60;;
74375;SDS011;62812;55.188;61.302;2023-04-15T06:18:04;4.45;;;1.23;;
74375;SDS011;62812;55.188;61.302;2023-04-15T06:20:33;3.92;;;1.23;;
74375;SDS011;62812;55.188;61.302;2023-04-15T06:33:21;1.38;;;0.50;;
74375;SDS011;62812;55.188;61.302;2023-04-15T06:35:52;3.63;;;1.02;;
74375;SDS011;62812;55.188;61.302;2023-04-15T06:41:25;3.42;;;1.13;;
74375;SDS011;62812;55.188;61.302;2023-04-15T06:43:55;7.90;;;1.10;;
74375;SDS011;62812;55.188;61.302;2023-04-15T06:46:24;4.03;;;0.82;;
74375;SDS011;62812;55.188;61.302;2023-04-15T06:49:17;5.72;;;1.02;;
74375;SDS011;62812;55.188;61.302;2023-04-15T06:51:49;3.38;;;0.80;;
74375;SDS011;62812;55.188;61.302;2023-04-15T06:54:20;3.47;;;0.80;;
74375;SDS011;62812;55.188;61.302;2023-04-15T06:56:49;2.05;;;0.63;;
74375;SDS011;62812;55.188;61.302;2023-04-15T06:59:22;1.48;;;0.40;;
74375;SDS011;62812;55.188;61.302;2023-04-15T07:01:56;3.17;;;0.70;;
74375;SDS011;62812;55.188;61.302;2023-04-15T07:04:48;3.03;;;0.52;;
74375;SDS011;62812;55.188;61.302;2023-04-15T07:07:36;1.27;;;0.40;;
74375;SDS011;62812;55.188;61.302;2023-04-15T07:10:09;0.85;;;0.28;;
74375;SDS011;62812;55.188;61.302;2023-04-15T07:12:39;2.90;;;0.88;;
74375;SDS011;62812;55.188;61.302;2023-04-15T07:15:26;2.13;;;0.63;;
74375;SDS011;62812;55.188;61.302;2023-04-15T07:18:00;4.53;;;0.80;;
74375;SDS011;62812;55.188;61.302;2023-04-15T07:24:00;3.67;;;1.05;;
74375;SDS011;62812;55.188;61.302;2023-04-15T07:26:33;3.83;;;0.90;;
74375;SDS011;62812;55.188;61.302;2023-04-15T07:29:29;4.05;;;0.90;;
74375;SDS011;62812;55.188;61.302;2023-04-15T07:32:05;3.17;;;0.88;;
74375;SDS011;62812;55.188;61.302;2023-04-15T07:34:38;6.85;;;0.93;;
74375;SDS011;62812;55.188;61.302;2023-04-15T07:37:12;11.93;;;1.30;;
74375;SDS011;62812;55.188;61.302;2023-04-15T07:39:40;3.33;;;0.95;;
74375;SDS011;62812;55.188;61.302;2023-04-15T07:42:09;8.68;;;1.70;;
74375;SDS011;62812;55.188;61.302;2023-04-15T07:44:38;4.70;;;1.60;;
74375;SDS011;62812;55.188;61.302;2023-04-15T07:47:07;6.55;;;1.92;;
74375;SDS011;62812;55.188;61.302;2023-04-15T07:49:36;4.53;;;1.70;;
74375;SDS011;62812;55.188;61.302;2023-04-15T07:52:06;6.03;;;1.90;;
74375;SDS011;62812;55.188;61.302;2023-04-15T07:54:40;4.60;;;1.60;;
74375;SDS011;62812;55.188;61.302;2023-04-15T07:57:09;8.55;;;2.58;;
74375;SDS011;62812;55.188;61.302;2023-04-15T07:59:56;14.85;;;2.13;;
74375;SDS011;62812;55.188;61.302;2023-04-15T08:02:50;5.70;;;2.20;;
74375;SDS011;62812;55.188;61.302;2023-04-15T08:05:26;8.02;;;2.22;;
74375;SDS011;62812;55.188;61.302;2023-04-15T08:07:58;11.88;;;3.20;;
74375;SDS011;62812;55.188;61.302;2023-04-15T08:10:34;6.72;;;3.03;;
74375;SDS011;62812;55.188;61.302;2023-04-15T08:13:05;7.30;;;2.50;;
74375;SDS011;62812;55.188;61.302;2023-04-15T08:15:43;7.90;;;1.80;;
74375;SDS011;62812;55.188;61.302;2023-04-15T08:18:13;7.00;;;2.00;;
74375;SDS011;62812;55.188;61.302;2023-04-15T08:20:43;6.90;;;2.13;;
74375;SDS011;62812;55.188;61.302;2023-04-15T08:23:23;7.30;;;2.08;;
74375;SDS011;62812;55.188;61.302;2023-04-15T08:35:38;5.32;;;1.88;;
74375;SDS011;62812;55.188;61.302;2023-04-15T08:38:07;5.38;;;1.90;;
74375;SDS011;62812;55.188;61.302;2023-04-15T08:40:39;6.25;;;2.20;;
74375;SDS011;62812;55.188;61.302;2023-04-15T08:43:10;9.05;;;1.63;;
74375;SDS011;62812;55.188;61.302;2023-04-15T08:45:46;5.60;;;2.10;;
74375;SDS011;62812;55.188;61.302;2023-04-15T08:48:21;6.32;;;1.90;;
74375;SDS011;62812;55.188;61.302;2023-04-15T08:54:14;5.30;;;1.70;;
74375;SDS011;62812;55.188;61.302;2023-04-15T08:56:43;5.85;;;1.70;;
74375;SDS011;62812;55.188;61.302;2023-04-15T08:59:12;4.90;;;1.40;;
74375;SDS011;62812;55.188;61.302;2023-04-15T09:01:51;9.35;;;2.33;;
74375;SDS011;62812;55.188;61.302;2023-04-15T09:04:24;5.05;;;1.77;;
74375;SDS011;62812;55.188;61.302;2023-04-15T09:06:54;5.75;;;1.67;;
74375;SDS011;62812;55.188;61.302;2023-04-15T09:09:25;5.88;;;1.30;;
74375;SDS011;62812;55.188;61.302;2023-04-15T09:16:02;7.43;;;1.33;;
74375;SDS011;62812;55.188;61.302;2023-04-15T09:18:34;3.50;;;1.13;;
74375;SDS011;62812;55.188;61.302;2023-04-15T09:21:04;5.70;;;1.75;;
74375;SDS011;62812;55.188;61.302;2023-04-15T09:23:35;5.35;;;1.80;;
74375;SDS011;62812;55.188;61.302;2023-04-15T09:26:06;5.13;;;1.60;;
74375;SDS011;62812;55.188;61.302;2023-04-15T09:28:40;3.28;;;0.98;;
74375;SDS011;62812;55.188;61.302;2023-04-15T09:31:12;4.53;;;1.38;;
74375;SDS011;62812;55.188;61.302;2023-04-15T09:33:54;4.55;;;1.27;;
74375;SDS011;62812;55.188;61.302;2023-04-15T09:36:24;3.83;;;1.20;;
74375;SDS011;62812;55.188;61.302;2023-04-15T09:38:59;4.35;;;1.30;;
74375;SDS011;62812;55.188;61.302;2023-04-15T09:41:29;7.68;;;1.77;;
74375;SDS011;62812;55.188;61.302;2023-04-15T09:43:57;4.65;;;1.42;;
74375;SDS011;62812;55.188;61.302;2023-04-15T09:46:43;8.40;;;2.10;;
74375;SDS011;62812;55.188;61.302;2023-04-15T09:49:12;4.93;;;1.17;;
74375;SDS011;62812;55.188;61.302;2023-04-15T09:51:43;4.22;;;1.20;;
74375;SDS011;62812;55.188;61.302;2023-04-15T09:54:13;8.55;;;2.50;;
74375;SDS011;62812;55.188;61.302;2023-04-15T09:56:51;4.07;;;1.00;;
74375;SDS011;62812;55.188;61.302;2023-04-15T09:59:19;2.70;;;1.00;;
74375;SDS011;62812;55.188;61.302;2023-04-15T10:01:48;3.78;;;1.10;;
74375;SDS011;62812;55.188;61.302;2023-04-15T10:04:22;3.50;;;1.10;;
74375;SDS011;62812;55.188;61.302;2023-04-15T10:06:59;4.30;;;1.25;;
74375;SDS011;62812;55.188;61.302;2023-04-15T10:09:34;4.05;;;1.10;;
74375;SDS011;62812;55.188;61.302;2023-04-15T10:12:05;4.43;;;1.48;;
74375;SDS011;62812;55.188;61.302;2023-04-15T10:14:39;4.18;;;0.90;;
74375;SDS011;62812;55.188;61.302;2023-04-15T10:17:11;4.63;;;1.13;;
74375;SDS011;62812;55.188;61.302;2023-04-15T10:20:22;6.03;;;0.98;;
74375;SDS011;62812;55.188;61.302;2023-04-15T10:23:11;3.55;;;1.02;;
74375;SDS011;62812;55.188;61.302;2023-04-15T10:25:40;4.65;;;1.00;;
74375;SDS011;62812;55.188;61.302;2023-04-15T10:28:28;5.93;;;1.30;;
74375;SDS011;62812;55.188;61.302;2023-04-15T10:31:05;4.03;;;1.15;;
74375;SDS011;62812;55.188;61.302;2023-04-15T10:33:39;3.38;;;1.08;;
74375;SDS011;62812;55.188;61.302;2023-04-15T10:36:17;6.03;;;1.30;;
74375;SDS011;62812;55.188;61.302;2023-04-15T10:38:48;3.35;;;0.80;;
74375;SDS011;62812;55.188;61.302;2023-04-15T10:44:44;4.65;;;1.10;;
74375;SDS011;62812;55.188;61.302;2023-04-15T10:47:16;5.15;;;1.45;;
74375;SDS011;62812;55.188;61.302;2023-04-15T10:49:47;6.63;;;1.38;;
74375;SDS011;62812;55.188;61.302;2023-04-15T10:52:22;5.38;;;1.50;;
74375;SDS011;62812;55.188;61.302;2023-04-15T10:55:00;4.50;;;1.50;;
74375;SDS011;62812;55.188;61.302;2023-04-15T10:57:33;5.10;;;1.50;;
74375;SDS011;62812;55.188;61.302;2023-04-15T11:00:15;4.97;;;1.42;;
74375;SDS011;62812;55.188;61.302;2023-04-15T11:02:45;5.25;;;1.30;;
74375;SDS011;62812;55.188;61.302;2023-04-15T11:05:15;4.90;;;1.90;;
74375;SDS011;62812;55.188;61.302;2023-04-15T11:07:50;4.53;;;1.65;;
74375;SDS011;62812;55.188;61.302;2023-04-15T11:13:28;5.00;;;1.83;;
74375;SDS011;62812;55.188;61.302;2023-04-15T11:16:28;7.82;;;1.73;;
74375;SDS011;62812;55.188;61.302;2023-04-15T11:19:40;6.78;;;1.70;;
74375;SDS011;62812;55.188;61.302;2023-04-15T11:22:11;5.65;;;1.33;;
74375;SDS011;62812;55.188;61.302;2023-04-15T11:24:49;7.57;;;1.83;;
74375;SDS011;62812;55.188;61.302;2023-04-15T11:27:21;6.45;;;1.58;;
74375;SDS011;62812;55.188;61.302;2023-04-15T11:29:52;8.77;;;1.75;;
74375;SDS011;62812;55.188;61.302;2023-04-15T11:32:30;9.90;;;1.75;;
74375;SDS011;62812;55.188;61.302;2023-04-15T11:34:59;4.78;;;1.70;;
74375;SDS011;62812;55.188;61.302;2023-04-15T11:37:34;4.22;;;1.50;;
74375;SDS011;62812;55.188;61.302;2023-04-15T11:40:24;6.53;;;1.73;;
74375;SDS011;62812;55.188;61.302;2023-04-15T11:43:05;5.68;;;2.03;;
74375;SDS011;62812;55.188;61.302;2023-04-15T11:55:17;4.85;;;1.83;;
74375;SDS011;62812;55.188;61.302;2023-04-15T11:58:25;5.63;;;1.70;;
74375;SDS011;62812;55.188;61.302;2023-04-15T12:01:40;4.68;;;1.75;;
74375;SDS011;62812;55.188;61.302;2023-04-15T12:04:17;7.35;;;1.65;;
74375;SDS011;62812;55.188;61.302;2023-04-15T12:06:49;4.60;;;1.50;;
74375;SDS011;62812;55.188;61.302;2023-04-15T12:09:24;5.28;;;1.58;;
74375;SDS011;62812;55.188;61.302;2023-04-15T12:12:08;6.00;;;1.55;;
74375;SDS011;62812;55.188;61.302;2023-04-15T12:14:40;4.45;;;1.38;;
74375;SDS011;62812;55.188;61.302;2023-04-15T12:17:18;5.88;;;1.35;;
74375;SDS011;62812;55.188;61.302;2023-04-15T12:20:03;5.20;;;1.38;;
74375;SDS011;62812;55.188;61.302;2023-04-15T12:22:31;6.13;;;1.33;;
74375;SDS011;62812;55.188;61.302;2023-04-15T12:25:36;5.57;;;1.48;;
74375;SDS011;62812;55.188;61.302;2023-04-15T12:28:23;4.22;;;1.52;;
74375;SDS011;62812;55.188;61.302;2023-04-15T12:31:31;7.40;;;2.03;;
74375;SDS011;62812;55.188;61.302;2023-04-15T12:34:02;6.38;;;1.48;;
74375;SDS011;62812;55.188;61.302;2023-04-15T12:36:33;4.22;;;1.30;;
74375;SDS011;62812;55.188;61.302;2023-04-15T12:39:18;5.28;;;1.52;;
74375;SDS011;62812;55.188;61.302;2023-04-15T13:08:39;10.52;;;1.42;;
74375;SDS011;62812;55.188;61.302;2023-04-15T13:12:40;2.72;;;0.93;;
74375;SDS011;62812;55.188;61.302;2023-04-15T13:18:42;5.18;;;1.30;;
74375;SDS011;62812;55.188;61.302;2023-04-15T13:32:52;2.95;;;0.73;;
74375;SDS011;62812;55.188;61.302;2023-04-15T13:39:18;6.80;;;1.13;;
74375;SDS011;62812;55.188;61.302;2023-04-15T13:41:58;6.03;;;1.20;;
74375;SDS011;62812;55.188;61.302;2023-04-15T13:45:16;3.47;;;1.05;;
74375;SDS011;62812;55.188;61.302;2023-04-15T14:01:35;11.38;;;1.98;;
74375;SDS011;62812;55.188;61.302;2023-04-15T14:07:32;4.78;;;1.73;;
74375;SDS011;62812;55.188;61.302;2023-04-15T14:10:36;4.43;;;1.30;;
74375;SDS011;62812;55.188;61.302;2023-04-15T14:13:21;4.07;;;1.20;;
74375;SDS011;62812;55.188;61.302;2023-04-15T14:19:24;4.03;;;1.25;;
74375;SDS011;62812;55.188;61.302;2023-04-15T14:22:42;7.03;;;1.40;;
74375;SDS011;62812;55.188;61.302;2023-04-15T14:25:22;6.10;;;1.83;;
74375;SDS011;62812;55.188;61.302;2023-04-15T14:28:16;9.80;;;1.60;;
74375;SDS011;62812;55.188;61.302;2023-04-15T14:31:09;4.53;;;1.08;;
74375;SDS011;62812;55.188;61.302;2023-04-15T14:33:40;4.22;;;1.10;;
74375;SDS011;62812;55.188;61.302;2023-04-15T14:36:29;5.43;;;1.20;;
74375;SDS011;62812;55.188;61.302;2023-04-15T14:39:30;5.70;;;1.10;;
74375;SDS011;62812;55.188;61.302;2023-04-15T14:42:16;6.25;;;1.50;;
74375;SDS011;62812;55.188;61.302;2023-04-15T14:45:16;5.53;;;1.23;;
74375;SDS011;62812;55.188;61.302;2023-04-15T14:47:50;11.50;;;1.70;;
74375;SDS011;62812;55.188;61.302;2023-04-15T14:50:26;10.45;;;1.60;;
74375;SDS011;62812;55.188;61.302;2023-04-15T14:59:13;4.20;;;1.23;;
74375;SDS011;62812;55.188;61.302;2023-04-15T15:01:48;12.50;;;2.53;;
74375;SDS011;62812;55.188;61.302;2023-04-15T15:04:25;15.27;;;2.08;;
74375;SDS011;62812;55.188;61.302;2023-04-15T15:06:58;6.32;;;1.80;;
74375;SDS011;62812;55.188;61.302;2023-04-15T15:09:55;6.63;;;2.03;;
74375;SDS011;62812;55.188;61.302;2023-04-15T15:12:25;17.77;;;2.35;;
74375;SDS011;62812;55.188;61.302;2023-04-15T15:23:59;15.15;;;2.35;;
74375;SDS011;62812;55.188;61.302;2023-04-15T15:26:57;14.73;;;2.53;;
74375;SDS011;62812;55.188;61.302;2023-04-15T15:29:44;13.57;;;2.58;;
74375;SDS011;62812;55.188;61.302;2023-04-15T15:32:38;8.38;;;1.73;;
74375;SDS011;62812;55.188;61.302;2023-04-15T15:40:56;9.35;;;2.60;;
74375;SDS011;62812;55.188;61.302;2023-04-15T15:43:29;9.38;;;2.50;;
74375;SDS011;62812;55.188;61.302;2023-04-15T15:46:22;9.50;;;2.40;;
74375;SDS011;62812;55.188;61.302;2023-04-15T15:49:34;12.10;;;2.60;;
74375;SDS011;62812;55.188;61.302;2023-04-15T15:53:05;19.38;;;5.72;;
74375;SDS011;62812;55.188;61.302;2023-04-15T16:21:43;12.85;;;3.20;;
74375;SDS011;62812;55.188;61.302;2023-04-15T16:31:25;26.67;;;4.80;;
74375;SDS011;62812;55.188;61.302;2023-04-15T16:35:05;27.73;;;4.47;;
74375;SDS011;62812;55.188;61.302;2023-04-15T16:41:57;20.15;;;4.53;;
74375;SDS011;62812;55.188;61.302;2023-04-15T16:44:52;21.90;;;6.20;;
74375;SDS011;62812;55.188;61.302;2023-04-15T16:50:57;29.73;;;4.75;;
74375;SDS011;62812;55.188;61.302;2023-04-15T16:57:19;17.27;;;5.85;;
74375;SDS011;62812;55.188;61.302;2023-04-15T16:59:47;23.20;;;7.85;;
74375;SDS011;62812;55.188;61.302;2023-04-15T17:02:17;28.17;;;7.85;;
74375;SDS011;62812;55.188;61.302;2023-04-15T17:04:50;29.40;;;7.07;;
74375;SDS011;62812;55.188;61.302;2023-04-15T17:07:17;30.77;;;7.32;;
74375;SDS011;62812;55.188;61.302;2023-04-15T17:09:48;41.08;;;6.90;;
74375;SDS011;62812;55.188;61.302;2023-04-15T17:12:30;30.42;;;6.82;;
74375;SDS011;62812;55.188;61.302;2023-04-15T17:14:58;18.20;;;5.95;;
74375;SDS011;62812;55.188;61.302;2023-04-15T17:21:16;35.58;;;5.70;;
74375;SDS011;62812;55.188;61.302;2023-04-15T17:24:30;26.25;;;6.78;;
74375;SDS011;62812;55.188;61.302;2023-04-15T17:27:47;36.78;;;10.63;;
74375;SDS011;62812;55.188;61.302;2023-04-15T17:31:13;35.15;;;10.18;;
74375;SDS011;62812;55.188;61.302;2023-04-15T17:34:27;26.17;;;6.47;;
74375;SDS011;62812;55.188;61.302;2023-04-15T17:38:10;32.03;;;8.23;;
74375;SDS011;62812;55.188;61.302;2023-04-15T17:51:06;26.73;;;6.50;;
74375;SDS011;62812;55.188;61.302;2023-04-15T17:55:07;20.52;;;5.63;;
74375;SDS011;62812;55.188;61.302;2023-04-15T17:58:39;24.48;;;5.47;;
74375;SDS011;62812;55.188;61.302;2023-04-15T18:01:52;27.90;;;6.88;;
74375;SDS011;62812;55.188;61.302;2023-04-15T18:05:05;25.80;;;5.50;;
74375;SDS011;62812;55.188;61.302;2023-04-15T18:12:32;26.00;;;4.88;;
74375;SDS011;62812;55.188;61.302;2023-04-15T18:15:30;24.73;;;5.53;;
74375;SDS011;62812;55.188;61.302;2023-04-15T18:18:29;41.08;;;7.22;;
74375;SDS011;62812;55.188;61.302;2023-04-15T18:21:25;19.83;;;4.82;;
74375;SDS011;62812;55.188;61.302;2023-04-15T18:24:49;37.13;;;5.63;;
74375;SDS011;62812;55.188;61.302;2023-04-15T18:27:58;37.45;;;6.80;;
74375;SDS011;62812;55.188;61.302;2023-04-15T18:31:07;33.10;;;8.07;;
74375;SDS011;62812;55.188;61.302;2023-04-15T18:34:26;39.83;;;8.10;;
74375;SDS011;62812;55.188;61.302;2023-04-15T18:36:57;40.97;;;8.52;;
74375;SDS011;62812;55.188;61.302;2023-04-15T18:40:11;33.83;;;7.18;;
74375;SDS011;62812;55.188;61.302;2023-04-15T18:43:15;22.25;;;6.53;;
74375;SDS011;62812;55.188;61.302;2023-04-15T18:45:48;27.63;;;5.75;;
74375;SDS011;62812;55.188;61.302;2023-04-15T18:48:38;27.17;;;6.55;;
74375;SDS011;62812;55.188;61.302;2023-04-15T18:51:13;23.05;;;5.72;;
74375;SDS011;62812;55.188;61.302;2023-04-15T18:53:52;18.33;;;5.40;;
74375;SDS011;62812;55.188;61.302;2023-04-15T18:56:39;28.73;;;7.07;;
74375;SDS011;62812;55.188;61.302;2023-04-15T19:00:06;28.25;;;7.05;;
74375;SDS011;62812;55.188;61.302;2023-04-15T19:40:30;37.83;;;10.10;;
74375;SDS011;62812;55.188;61.302;2023-04-15T19:42:58;34.13;;;9.32;;
74375;SDS011;62812;55.188;61.302;2023-04-15T19:45:26;43.13;;;10.48;;
74375;SDS011;62812;55.188;61.302;2023-04-15T19:47:53;42.08;;;10.40;;
74375;SDS011;62812;55.188;61.302;2023-04-15T19:50:21;42.88;;;9.95;;
74375;SDS011;62812;55.188;61.302;2023-04-15T19:52:52;37.53;;;9.20;;
74375;SDS011;62812;55.188;61.302;2023-04-15T19:55:19;40.60;;;9.20;;
74375;SDS011;62812;55.188;61.302;2023-04-15T19:57:48;30.35;;;8.77;;
74375;SDS011;62812;55.188;61.302;2023-04-15T20:00:20;27.25;;;6.93;;
74375;SDS011;62812;55.188;61.302;2023-04-15T20:02:48;27.17;;;7.30;;
74375;SDS011;62812;55.188;61.302;2023-04-15T20:05:15;28.92;;;6.53;;
74375;SDS011;62812;55.188;61.302;2023-04-15T20:07:42;20.10;;;5.40;;
74375;SDS011;62812;55.188;61.302;2023-04-15T20:10:12;18.50;;;5.53;;
74375;SDS011;62812;55.188;61.302;2023-04-15T20:12:42;15.40;;;4.55;;
74375;SDS011;62812;55.188;61.302;2023-04-15T20:15:11;15.90;;;3.90;;
74375;SDS011;62812;55.188;61.302;2023-04-15T20:17:38;12.80;;;3.25;;
74375;SDS011;62812;55.188;61.302;2023-04-15T20:20:08;16.23;;;3.55;;
74375;SDS011;62812;55.188;61.302;2023-04-15T20:22:35;14.93;;;3.00;;
74375;SDS011;62812;55.188;61.302;2023-04-15T20:25:03;12.82;;;3.13;;
74375;SDS011;62812;55.188;61.302;2023-04-15T20:27:33;8.85;;;3.05;;
74375;SDS011;62812;55.188;61.302;2023-04-15T20:30:02;9.85;;;3.25;;
74375;SDS011;62812;55.188;61.302;2023-04-15T20:32:34;11.07;;;3.25;;
74375;SDS011;62812;55.188;61.302;2023-04-15T20:35:01;13.52;;;3.53;;
74375;SDS011;62812;55.188;61.302;2023-04-15T20:37:29;8.75;;;2.90;;
74375;SDS011;62812;55.188;61.302;2023-04-15T20:39:59;13.35;;;3.00;;
74375;SDS011;62812;55.188;61.302;2023-04-15T20:42:31;12.68;;;3.60;;
74375;SDS011;62812;55.188;61.302;2023-04-15T20:44:59;16.80;;;3.17;;